sensor_id;sensor_type;location;lat;lon;timestamp;P1;durP1;ratioP1;P2;durP2;ratioP2
69220;SDS011;56331;51.992;20.910;2023-05-20T00:01:23;3.27;;;2.35;;
69220;SDS011;56331;51.992;20.910;2023-05-20T00:03:49;3.67;;;2.67;;
69220;SDS011;56331;51.992;20.910;2023-05-20T00:06:16;2.65;;;2.30;;
69220;SDS011;56331;51.992;20.910;2023-05-20T00:08:42;2.87;;;2.37;;
69220;SDS011;56331;51.992;20.910;2023-05-20T00:11:09;2.75;;;2.42;;
69220;SDS011;56331;51.992;20.910;2023-05-20T00:13:37;3.35;;;2.20;;
69220;SDS011;56331;51.992;20.910;2023-05-20T00:16:04;3.17;;;2.35;;
69220;SDS011;56331;51.992;20.910;2023-05-20T00:18:31;2.62;;;2.00;;
69220;SDS011;56331;51.992;20.910;2023-05-20T00:20:57;3.62;;;2.50;;
69220;SDS011;56331;51.992;20.910;2023-05-20T00:23:24;2.70;;;2.20;;
69220;SDS011;56331;51.992;20.910;2023-05-20T00:25:50;3.65;;;2.35;;
69220;SDS011;56331;51.992;20.910;2023-05-20T00:28:17;4.37;;;2.67;;
69220;SDS011;56331;51.992;20.910;2023-05-20T00:30:44;3.42;;;2.50;;
69220;SDS011;56331;51.992;20.910;2023-05-20T00:33:11;3.60;;;2.65;;
69220;SDS011;56331;51.992;20.910;2023-05-20T00:35:37;4.37;;;2.52;;
69220;SDS011;56331;51.992;20.910;2023-05-20T00:38:04;3.22;;;2.40;;
69220;SDS011;56331;51.992;20.910;2023-05-20T00:40:31;3.02;;;2.35;;
69220;SDS011;56331;51.992;20.910;2023-05-20T00:42:57;3.80;;;2.35;;
69220;SDS011;56331;51.992;20.910;2023-05-20T00:45:23;3.40;;;2.10;;
69220;SDS011;56331;51.992;20.910;2023-05-20T00:50:21;3.52;;;2.47;;
69220;SDS011;56331;51.992;20.910;2023-05-20T00:52:48;3.98;;;2.72;;
69220;SDS011;56331;51.992;20.910;2023-05-20T00:55:16;2.80;;;2.20;;
69220;SDS011;56331;51.992;20.910;2023-05-20T00:57:43;3.02;;;2.33;;
69220;SDS011;56331;51.992;20.910;2023-05-20T01:00:10;3.37;;;2.30;;
69220;SDS011;56331;51.992;20.910;2023-05-20T01:02:38;4.90;;;2.60;;
69220;SDS011;56331;51.992;20.910;2023-05-20T01:05:05;3.17;;;2.40;;
69220;SDS011;56331;51.992;20.910;2023-05-20T01:07:32;3.55;;;2.62;;
69220;SDS011;56331;51.992;20.910;2023-05-20T01:09:59;4.80;;;2.62;;
69220;SDS011;56331;51.992;20.910;2023-05-20T01:12:30;3.05;;;2.25;;
69220;SDS011;56331;51.992;20.910;2023-05-20T01:15:09;3.22;;;2.50;;
69220;SDS011;56331;51.992;20.910;2023-05-20T01:17:35;3.70;;;2.40;;
69220;SDS011;56331;51.992;20.910;2023-05-20T01:20:11;3.15;;;2.20;;
69220;SDS011;56331;51.992;20.910;2023-05-20T01:22:46;3.55;;;2.40;;
69220;SDS011;56331;51.992;20.910;2023-05-20T01:25:12;3.37;;;1.82;;
69220;SDS011;56331;51.992;20.910;2023-05-20T01:27:39;3.10;;;2.35;;
69220;SDS011;56331;51.992;20.910;2023-05-20T01:30:06;4.75;;;2.67;;
69220;SDS011;56331;51.992;20.910;2023-05-20T01:32:37;2.10;;;1.90;;
69220;SDS011;56331;51.992;20.910;2023-05-20T01:35:06;2.87;;;2.25;;
69220;SDS011;56331;51.992;20.910;2023-05-20T01:37:34;3.27;;;2.50;;
69220;SDS011;56331;51.992;20.910;2023-05-20T01:42:32;3.00;;;2.37;;
69220;SDS011;56331;51.992;20.910;2023-05-20T01:45:01;3.00;;;2.27;;
69220;SDS011;56331;51.992;20.910;2023-05-20T01:47:28;3.10;;;2.40;;
69220;SDS011;56331;51.992;20.910;2023-05-20T01:49:54;3.10;;;2.27;;
69220;SDS011;56331;51.992;20.910;2023-05-20T01:52:21;2.87;;;2.35;;
69220;SDS011;56331;51.992;20.910;2023-05-20T01:54:48;2.30;;;2.05;;
69220;SDS011;56331;51.992;20.910;2023-05-20T01:57:19;3.40;;;2.60;;
69220;SDS011;56331;51.992;20.910;2023-05-20T01:59:47;3.08;;;2.30;;
69220;SDS011;56331;51.992;20.910;2023-05-20T02:02:13;2.90;;;2.40;;
69220;SDS011;56331;51.992;20.910;2023-05-20T02:04:41;3.22;;;2.30;;
69220;SDS011;56331;51.992;20.910;2023-05-20T02:07:14;3.20;;;2.25;;
69220;SDS011;56331;51.992;20.910;2023-05-20T02:09:45;3.62;;;2.37;;
69220;SDS011;56331;51.992;20.910;2023-05-20T02:12:12;3.40;;;2.50;;
69220;SDS011;56331;51.992;20.910;2023-05-20T02:14:41;3.75;;;2.37;;
69220;SDS011;56331;51.992;20.910;2023-05-20T02:17:11;3.08;;;2.40;;
69220;SDS011;56331;51.992;20.910;2023-05-20T02:19:44;3.12;;;2.42;;
69220;SDS011;56331;51.992;20.910;2023-05-20T02:22:12;3.08;;;2.42;;
69220;SDS011;56331;51.992;20.910;2023-05-20T02:24:39;3.35;;;2.42;;
69220;SDS011;56331;51.992;20.910;2023-05-20T02:27:07;3.55;;;2.75;;
69220;SDS011;56331;51.992;20.910;2023-05-20T02:29:34;3.58;;;2.67;;
69220;SDS011;56331;51.992;20.910;2023-05-20T02:32:00;3.30;;;2.52;;
69220;SDS011;56331;51.992;20.910;2023-05-20T02:34:27;3.40;;;2.52;;
69220;SDS011;56331;51.992;20.910;2023-05-20T02:36:54;3.62;;;2.60;;
69220;SDS011;56331;51.992;20.910;2023-05-20T02:39:21;2.67;;;2.20;;
69220;SDS011;56331;51.992;20.910;2023-05-20T02:41:48;3.30;;;2.47;;
69220;SDS011;56331;51.992;20.910;2023-05-20T02:44:14;3.85;;;2.72;;
69220;SDS011;56331;51.992;20.910;2023-05-20T02:46:41;2.92;;;2.50;;
69220;SDS011;56331;51.992;20.910;2023-05-20T02:49:09;3.70;;;2.70;;
69220;SDS011;56331;51.992;20.910;2023-05-20T02:51:35;3.45;;;2.55;;
69220;SDS011;56331;51.992;20.910;2023-05-20T02:54:02;3.67;;;2.30;;
69220;SDS011;56331;51.992;20.910;2023-05-20T02:56:28;3.58;;;2.45;;
69220;SDS011;56331;51.992;20.910;2023-05-20T02:58:55;3.62;;;2.58;;
69220;SDS011;56331;51.992;20.910;2023-05-20T03:01:21;2.72;;;2.42;;
69220;SDS011;56331;51.992;20.910;2023-05-20T03:03:48;3.55;;;2.58;;
69220;SDS011;56331;51.992;20.910;2023-05-20T03:06:14;3.42;;;2.37;;
69220;SDS011;56331;51.992;20.910;2023-05-20T03:08:41;3.47;;;2.30;;
69220;SDS011;56331;51.992;20.910;2023-05-20T03:11:07;3.37;;;2.42;;
69220;SDS011;56331;51.992;20.910;2023-05-20T03:13:33;2.80;;;2.45;;
69220;SDS011;56331;51.992;20.910;2023-05-20T03:16:00;3.42;;;2.60;;
69220;SDS011;56331;51.992;20.910;2023-05-20T03:18:27;3.02;;;2.37;;
69220;SDS011;56331;51.992;20.910;2023-05-20T03:20:53;3.10;;;2.40;;
69220;SDS011;56331;51.992;20.910;2023-05-20T03:23:19;3.77;;;2.50;;
69220;SDS011;56331;51.992;20.910;2023-05-20T03:25:46;3.20;;;2.40;;
69220;SDS011;56331;51.992;20.910;2023-05-20T03:28:13;3.58;;;2.45;;
69220;SDS011;56331;51.992;20.910;2023-05-20T03:30:39;3.10;;;2.33;;
69220;SDS011;56331;51.992;20.910;2023-05-20T03:33:06;2.75;;;2.30;;
69220;SDS011;56331;51.992;20.910;2023-05-20T03:35:32;3.60;;;2.40;;
69220;SDS011;56331;51.992;20.910;2023-05-20T03:37:58;2.45;;;2.00;;
69220;SDS011;56331;51.992;20.910;2023-05-20T03:40:26;3.22;;;2.22;;
69220;SDS011;56331;51.992;20.910;2023-05-20T03:42:53;3.37;;;2.35;;
69220;SDS011;56331;51.992;20.910;2023-05-20T03:45:19;2.92;;;2.22;;
69220;SDS011;56331;51.992;20.910;2023-05-20T03:47:50;3.80;;;2.37;;
69220;SDS011;56331;51.992;20.910;2023-05-20T03:50:18;3.40;;;2.08;;
69220;SDS011;56331;51.992;20.910;2023-05-20T03:52:44;2.77;;;2.25;;
69220;SDS011;56331;51.992;20.910;2023-05-20T03:55:11;3.77;;;2.22;;
69220;SDS011;56331;51.992;20.910;2023-05-20T03:57:39;2.72;;;2.05;;
69220;SDS011;56331;51.992;20.910;2023-05-20T04:00:06;2.77;;;2.02;;
69220;SDS011;56331;51.992;20.910;2023-05-20T04:02:38;3.17;;;2.25;;
69220;SDS011;56331;51.992;20.910;2023-05-20T04:05:05;4.12;;;2.10;;
69220;SDS011;56331;51.992;20.910;2023-05-20T04:07:34;3.15;;;2.15;;
69220;SDS011;56331;51.992;20.910;2023-05-20T04:10:02;2.50;;;2.00;;
69220;SDS011;56331;51.992;20.910;2023-05-20T04:12:29;2.92;;;2.10;;
69220;SDS011;56331;51.992;20.910;2023-05-20T04:15:01;2.62;;;1.92;;
69220;SDS011;56331;51.992;20.910;2023-05-20T04:17:29;3.17;;;2.10;;
69220;SDS011;56331;51.992;20.910;2023-05-20T04:19:56;2.80;;;2.12;;
69220;SDS011;56331;51.992;20.910;2023-05-20T04:22:24;2.58;;;2.17;;
69220;SDS011;56331;51.992;20.910;2023-05-20T04:24:51;2.80;;;2.15;;
69220;SDS011;56331;51.992;20.910;2023-05-20T04:27:17;2.47;;;2.15;;
69220;SDS011;56331;51.992;20.910;2023-05-20T04:29:45;2.27;;;1.95;;
69220;SDS011;56331;51.992;20.910;2023-05-20T04:32:12;2.10;;;1.77;;
69220;SDS011;56331;51.992;20.910;2023-05-20T04:34:40;2.45;;;1.95;;
69220;SDS011;56331;51.992;20.910;2023-05-20T04:37:07;2.55;;;1.82;;
69220;SDS011;56331;51.992;20.910;2023-05-20T04:39:34;3.22;;;2.20;;
69220;SDS011;56331;51.992;20.910;2023-05-20T04:42:01;3.20;;;2.10;;
69220;SDS011;56331;51.992;20.910;2023-05-20T04:44:30;1.77;;;1.60;;
69220;SDS011;56331;51.992;20.910;2023-05-20T04:46:57;2.90;;;1.92;;
69220;SDS011;56331;51.992;20.910;2023-05-20T04:49:24;2.45;;;1.98;;
69220;SDS011;56331;51.992;20.910;2023-05-20T04:51:52;2.50;;;1.82;;
69220;SDS011;56331;51.992;20.910;2023-05-20T04:54:20;2.35;;;1.75;;
69220;SDS011;56331;51.992;20.910;2023-05-20T04:56:46;1.92;;;1.70;;
69220;SDS011;56331;51.992;20.910;2023-05-20T04:59:13;1.95;;;1.75;;
69220;SDS011;56331;51.992;20.910;2023-05-20T05:01:39;2.55;;;1.85;;
69220;SDS011;56331;51.992;20.910;2023-05-20T05:04:06;2.58;;;1.92;;
69220;SDS011;56331;51.992;20.910;2023-05-20T05:06:32;2.30;;;1.82;;
69220;SDS011;56331;51.992;20.910;2023-05-20T05:09:00;2.30;;;1.70;;
69220;SDS011;56331;51.992;20.910;2023-05-20T05:11:26;2.52;;;2.02;;
69220;SDS011;56331;51.992;20.910;2023-05-20T05:13:53;2.83;;;1.92;;
69220;SDS011;56331;51.992;20.910;2023-05-20T05:16:19;2.50;;;1.90;;
69220;SDS011;56331;51.992;20.910;2023-05-20T05:18:46;2.87;;;2.10;;
69220;SDS011;56331;51.992;20.910;2023-05-20T05:21:12;3.00;;;2.00;;
69220;SDS011;56331;51.992;20.910;2023-05-20T05:23:38;2.55;;;1.85;;
69220;SDS011;56331;51.992;20.910;2023-05-20T05:26:07;2.15;;;1.80;;
69220;SDS011;56331;51.992;20.910;2023-05-20T05:28:33;2.95;;;2.02;;
69220;SDS011;56331;51.992;20.910;2023-05-20T05:31:00;2.15;;;1.62;;
69220;SDS011;56331;51.992;20.910;2023-05-20T05:33:27;1.70;;;1.50;;
69220;SDS011;56331;51.992;20.910;2023-05-20T05:35:53;2.08;;;1.85;;
69220;SDS011;56331;51.992;20.910;2023-05-20T05:38:21;2.30;;;1.82;;
69220;SDS011;56331;51.992;20.910;2023-05-20T05:40:48;2.67;;;1.90;;
69220;SDS011;56331;51.992;20.910;2023-05-20T05:43:14;2.25;;;1.70;;
69220;SDS011;56331;51.992;20.910;2023-05-20T05:45:40;2.20;;;1.80;;
69220;SDS011;56331;51.992;20.910;2023-05-20T05:48:07;3.05;;;1.82;;
69220;SDS011;56331;51.992;20.910;2023-05-20T05:50:34;2.02;;;1.60;;
69220;SDS011;56331;51.992;20.910;2023-05-20T05:53:00;2.50;;;1.62;;
69220;SDS011;56331;51.992;20.910;2023-05-20T05:55:27;2.40;;;1.75;;
69220;SDS011;56331;51.992;20.910;2023-05-20T05:57:53;2.50;;;1.70;;
69220;SDS011;56331;51.992;20.910;2023-05-20T06:00:20;1.87;;;1.50;;
69220;SDS011;56331;51.992;20.910;2023-05-20T06:02:47;2.33;;;1.67;;
69220;SDS011;56331;51.992;20.910;2023-05-20T06:05:13;1.92;;;1.62;;
69220;SDS011;56331;51.992;20.910;2023-05-20T06:07:40;1.95;;;1.60;;
69220;SDS011;56331;51.992;20.910;2023-05-20T06:10:08;3.05;;;1.47;;
69220;SDS011;56331;51.992;20.910;2023-05-20T06:12:35;3.80;;;1.92;;
69220;SDS011;56331;51.992;20.910;2023-05-20T06:15:01;2.33;;;1.72;;
69220;SDS011;56331;51.992;20.910;2023-05-20T06:17:28;2.52;;;1.85;;
69220;SDS011;56331;51.992;20.910;2023-05-20T06:19:55;2.35;;;1.70;;
69220;SDS011;56331;51.992;20.910;2023-05-20T06:22:21;2.58;;;2.05;;
69220;SDS011;56331;51.992;20.910;2023-05-20T06:24:47;2.40;;;1.77;;
69220;SDS011;56331;51.992;20.910;2023-05-20T06:27:14;2.95;;;1.67;;
69220;SDS011;56331;51.992;20.910;2023-05-20T06:29:41;2.05;;;1.65;;
69220;SDS011;56331;51.992;20.910;2023-05-20T06:32:07;2.83;;;1.80;;
69220;SDS011;56331;51.992;20.910;2023-05-20T06:34:33;2.30;;;1.62;;
69220;SDS011;56331;51.992;20.910;2023-05-20T06:37:00;2.20;;;1.50;;
69220;SDS011;56331;51.992;20.910;2023-05-20T06:39:27;2.72;;;1.50;;
69220;SDS011;56331;51.992;20.910;2023-05-20T06:41:53;2.30;;;1.55;;
69220;SDS011;56331;51.992;20.910;2023-05-20T06:44:19;3.75;;;1.80;;
69220;SDS011;56331;51.992;20.910;2023-05-20T06:46:47;1.80;;;1.45;;
69220;SDS011;56331;51.992;20.910;2023-05-20T06:49:14;2.00;;;1.70;;
69220;SDS011;56331;51.992;20.910;2023-05-20T06:51:41;2.55;;;1.67;;
69220;SDS011;56331;51.992;20.910;2023-05-20T06:54:09;2.37;;;1.80;;
69220;SDS011;56331;51.992;20.910;2023-05-20T06:56:35;2.27;;;1.70;;
69220;SDS011;56331;51.992;20.910;2023-05-20T06:59:02;1.95;;;1.62;;
69220;SDS011;56331;51.992;20.910;2023-05-20T07:01:28;2.67;;;1.57;;
69220;SDS011;56331;51.992;20.910;2023-05-20T07:03:54;2.30;;;1.70;;
69220;SDS011;56331;51.992;20.910;2023-05-20T07:06:21;2.20;;;1.45;;
69220;SDS011;56331;51.992;20.910;2023-05-20T07:08:48;2.47;;;1.72;;
69220;SDS011;56331;51.992;20.910;2023-05-20T07:11:14;2.55;;;1.72;;
69220;SDS011;56331;51.992;20.910;2023-05-20T07:13:41;1.90;;;1.70;;
69220;SDS011;56331;51.992;20.910;2023-05-20T07:16:07;1.70;;;1.40;;
69220;SDS011;56331;51.992;20.910;2023-05-20T07:18:33;1.90;;;1.42;;
69220;SDS011;56331;51.992;20.910;2023-05-20T07:21:01;2.08;;;1.60;;
69220;SDS011;56331;51.992;20.910;2023-05-20T07:23:27;2.80;;;1.50;;
69220;SDS011;56331;51.992;20.910;2023-05-20T07:25:54;2.27;;;1.62;;
69220;SDS011;56331;51.992;20.910;2023-05-20T07:28:20;2.00;;;1.42;;
69220;SDS011;56331;51.992;20.910;2023-05-20T07:30:47;1.52;;;1.30;;
69220;SDS011;56331;51.992;20.910;2023-05-20T07:33:15;2.08;;;1.55;;
69220;SDS011;56331;51.992;20.910;2023-05-20T07:35:46;3.72;;;1.70;;
69220;SDS011;56331;51.992;20.910;2023-05-20T07:38:13;2.33;;;1.45;;
69220;SDS011;56331;51.992;20.910;2023-05-20T07:40:40;2.45;;;1.67;;
69220;SDS011;56331;51.992;20.910;2023-05-20T07:43:07;2.77;;;1.70;;
69220;SDS011;56331;51.992;20.910;2023-05-20T07:45:34;2.08;;;1.50;;
69220;SDS011;56331;51.992;20.910;2023-05-20T07:48:01;1.90;;;1.55;;
69220;SDS011;56331;51.992;20.910;2023-05-20T07:50:29;3.15;;;1.87;;
69220;SDS011;56331;51.992;20.910;2023-05-20T07:52:55;3.27;;;1.87;;
69220;SDS011;56331;51.992;20.910;2023-05-20T07:55:21;2.02;;;1.60;;
69220;SDS011;56331;51.992;20.910;2023-05-20T07:57:48;4.83;;;1.80;;
69220;SDS011;56331;51.992;20.910;2023-05-20T08:00:14;2.37;;;1.62;;
69220;SDS011;56331;51.992;20.910;2023-05-20T08:02:41;3.15;;;1.70;;
69220;SDS011;56331;51.992;20.910;2023-05-20T08:05:08;3.40;;;1.70;;
69220;SDS011;56331;51.992;20.910;2023-05-20T08:07:34;2.15;;;1.50;;
69220;SDS011;56331;51.992;20.910;2023-05-20T08:10:00;2.42;;;1.47;;
69220;SDS011;56331;51.992;20.910;2023-05-20T08:12:27;1.62;;;1.45;;
69220;SDS011;56331;51.992;20.910;2023-05-20T08:14:53;1.90;;;1.50;;
69220;SDS011;56331;51.992;20.910;2023-05-20T08:17:19;2.35;;;1.52;;
69220;SDS011;56331;51.992;20.910;2023-05-20T08:19:46;3.15;;;1.92;;
69220;SDS011;56331;51.992;20.910;2023-05-20T08:22:12;6.15;;;2.05;;
69220;SDS011;56331;51.992;20.910;2023-05-20T08:24:39;4.95;;;2.10;;
69220;SDS011;56331;51.992;20.910;2023-05-20T08:27:06;6.83;;;2.70;;
69220;SDS011;56331;51.992;20.910;2023-05-20T08:29:32;7.22;;;2.42;;
69220;SDS011;56331;51.992;20.910;2023-05-20T08:31:58;5.83;;;2.60;;
69220;SDS011;56331;51.992;20.910;2023-05-20T08:34:25;6.12;;;2.50;;
69220;SDS011;56331;51.992;20.910;2023-05-20T08:36:51;5.03;;;2.30;;
69220;SDS011;56331;51.992;20.910;2023-05-20T08:39:18;4.20;;;2.30;;
69220;SDS011;56331;51.992;20.910;2023-05-20T08:41:45;4.22;;;2.12;;
69220;SDS011;56331;51.992;20.910;2023-05-20T08:44:12;4.50;;;2.70;;
69220;SDS011;56331;51.992;20.910;2023-05-20T08:46:41;9.03;;;2.40;;
69220;SDS011;56331;51.992;20.910;2023-05-20T08:49:08;3.45;;;2.00;;
69220;SDS011;56331;51.992;20.910;2023-05-20T08:51:35;3.50;;;2.02;;
69220;SDS011;56331;51.992;20.910;2023-05-20T08:54:03;4.72;;;2.05;;
69220;SDS011;56331;51.992;20.910;2023-05-20T08:56:30;3.70;;;2.15;;
69220;SDS011;56331;51.992;20.910;2023-05-20T08:59:00;4.62;;;1.92;;
69220;SDS011;56331;51.992;20.910;2023-05-20T09:01:28;5.95;;;2.05;;
69220;SDS011;56331;51.992;20.910;2023-05-20T09:03:58;4.97;;;2.30;;
69220;SDS011;56331;51.992;20.910;2023-05-20T09:06:25;3.72;;;2.10;;
69220;SDS011;56331;51.992;20.910;2023-05-20T09:08:51;4.50;;;2.02;;
69220;SDS011;56331;51.992;20.910;2023-05-20T09:11:18;4.00;;;2.42;;
69220;SDS011;56331;51.992;20.910;2023-05-20T09:13:46;7.00;;;2.10;;
69220;SDS011;56331;51.992;20.910;2023-05-20T09:16:14;3.87;;;2.30;;
69220;SDS011;56331;51.992;20.910;2023-05-20T09:18:41;5.17;;;2.60;;
69220;SDS011;56331;51.992;20.910;2023-05-20T09:21:08;2.77;;;2.02;;
69220;SDS011;56331;51.992;20.910;2023-05-20T09:23:37;3.92;;;2.15;;
69220;SDS011;56331;51.992;20.910;2023-05-20T09:26:04;2.67;;;1.92;;
69220;SDS011;56331;51.992;20.910;2023-05-20T09:28:30;8.05;;;2.92;;
69220;SDS011;56331;51.992;20.910;2023-05-20T09:30:58;4.03;;;2.47;;
69220;SDS011;56331;51.992;20.910;2023-05-20T09:33:27;2.50;;;1.90;;
69220;SDS011;56331;51.992;20.910;2023-05-20T09:36:03;3.05;;;1.72;;
69220;SDS011;56331;51.992;20.910;2023-05-20T09:38:39;2.80;;;1.80;;
69220;SDS011;56331;51.992;20.910;2023-05-20T09:41:22;3.67;;;2.15;;
69220;SDS011;56331;51.992;20.910;2023-05-20T09:43:40;4.33;;;2.10;;
69220;SDS011;56331;51.992;20.910;2023-05-20T09:46:07;2.50;;;1.92;;
69220;SDS011;56331;51.992;20.910;2023-05-20T09:48:34;2.15;;;1.70;;
69220;SDS011;56331;51.992;20.910;2023-05-20T09:51:03;3.80;;;1.90;;
69220;SDS011;56331;51.992;20.910;2023-05-20T09:53:31;6.33;;;3.40;;
69220;SDS011;56331;51.992;20.910;2023-05-20T09:55:58;3.12;;;2.67;;
69220;SDS011;56331;51.992;20.910;2023-05-20T09:58:25;5.58;;;2.80;;
69220;SDS011;56331;51.992;20.910;2023-05-20T10:00:55;4.05;;;2.92;;
69220;SDS011;56331;51.992;20.910;2023-05-20T10:03:22;5.12;;;2.47;;
69220;SDS011;56331;51.992;20.910;2023-05-20T10:06:19;4.03;;;2.00;;
69220;SDS011;56331;51.992;20.910;2023-05-20T10:19:31;5.78;;;2.08;;
69220;SDS011;56331;51.992;20.910;2023-05-20T10:21:59;3.95;;;2.50;;
69220;SDS011;56331;51.992;20.910;2023-05-20T10:24:34;5.35;;;2.12;;
69220;SDS011;56331;51.992;20.910;2023-05-20T10:27:03;5.72;;;3.60;;
69220;SDS011;56331;51.992;20.910;2023-05-20T10:29:42;6.83;;;2.97;;
69220;SDS011;56331;51.992;20.910;2023-05-20T10:32:10;3.35;;;2.60;;
69220;SDS011;56331;51.992;20.910;2023-05-20T10:34:49;3.20;;;2.35;;
69220;SDS011;56331;51.992;20.910;2023-05-20T10:37:23;3.33;;;2.87;;
69220;SDS011;56331;51.992;20.910;2023-05-20T10:39:51;4.72;;;2.30;;
69220;SDS011;56331;51.992;20.910;2023-05-20T10:42:26;4.85;;;2.30;;
69220;SDS011;56331;51.992;20.910;2023-05-20T10:44:54;5.35;;;2.67;;
69220;SDS011;56331;51.992;20.910;2023-05-20T10:47:21;3.35;;;2.35;;
69220;SDS011;56331;51.992;20.910;2023-05-20T10:49:47;2.58;;;2.33;;
69220;SDS011;56331;51.992;20.910;2023-05-20T10:52:15;3.52;;;2.10;;
69220;SDS011;56331;51.992;20.910;2023-05-20T10:54:46;2.20;;;1.87;;
69220;SDS011;56331;51.992;20.910;2023-05-20T10:57:14;4.33;;;2.50;;
69220;SDS011;56331;51.992;20.910;2023-05-20T10:59:41;3.05;;;1.98;;
69220;SDS011;56331;51.992;20.910;2023-05-20T11:02:07;2.67;;;2.15;;
69220;SDS011;56331;51.992;20.910;2023-05-20T11:04:41;4.17;;;2.27;;
69220;SDS011;56331;51.992;20.910;2023-05-20T11:07:09;2.52;;;2.17;;
69220;SDS011;56331;51.992;20.910;2023-05-20T11:09:35;4.22;;;2.22;;
69220;SDS011;56331;51.992;20.910;2023-05-20T11:12:02;2.67;;;2.02;;
69220;SDS011;56331;51.992;20.910;2023-05-20T11:14:29;2.95;;;2.37;;
69220;SDS011;56331;51.992;20.910;2023-05-20T11:16:56;3.85;;;2.42;;
69220;SDS011;56331;51.992;20.910;2023-05-20T11:19:24;3.17;;;2.20;;
69220;SDS011;56331;51.992;20.910;2023-05-20T11:21:51;3.08;;;2.27;;
69220;SDS011;56331;51.992;20.910;2023-05-20T11:24:25;4.87;;;2.25;;
69220;SDS011;56331;51.992;20.910;2023-05-20T11:26:53;3.12;;;2.25;;
69220;SDS011;56331;51.992;20.910;2023-05-20T11:29:20;3.05;;;2.37;;
69220;SDS011;56331;51.992;20.910;2023-05-20T11:31:48;4.25;;;2.37;;
69220;SDS011;56331;51.992;20.910;2023-05-20T11:34:20;3.20;;;2.45;;
69220;SDS011;56331;51.992;20.910;2023-05-20T11:36:47;4.60;;;2.20;;
69220;SDS011;56331;51.992;20.910;2023-05-20T11:39:15;2.77;;;2.20;;
69220;SDS011;56331;51.992;20.910;2023-05-20T11:41:42;4.30;;;3.22;;
69220;SDS011;56331;51.992;20.910;2023-05-20T11:44:11;3.90;;;2.60;;
69220;SDS011;56331;51.992;20.910;2023-05-20T11:46:41;3.58;;;2.50;;
69220;SDS011;56331;51.992;20.910;2023-05-20T11:49:09;3.05;;;2.60;;
69220;SDS011;56331;51.992;20.910;2023-05-20T11:51:36;3.17;;;2.52;;
69220;SDS011;56331;51.992;20.910;2023-05-20T11:54:04;3.42;;;2.37;;
69220;SDS011;56331;51.992;20.910;2023-05-20T11:56:33;6.87;;;2.92;;
69220;SDS011;56331;51.992;20.910;2023-05-20T11:59:02;3.12;;;2.67;;
69220;SDS011;56331;51.992;20.910;2023-05-20T12:01:30;4.97;;;2.50;;
69220;SDS011;56331;51.992;20.910;2023-05-20T12:04:08;4.25;;;2.67;;
69220;SDS011;56331;51.992;20.910;2023-05-20T12:06:35;3.00;;;2.62;;
69220;SDS011;56331;51.992;20.910;2023-05-20T12:09:06;3.30;;;2.40;;
69220;SDS011;56331;51.992;20.910;2023-05-20T12:11:33;2.70;;;2.27;;
69220;SDS011;56331;51.992;20.910;2023-05-20T12:14:01;6.97;;;3.65;;
69220;SDS011;56331;51.992;20.910;2023-05-20T12:16:31;3.55;;;3.08;;
69220;SDS011;56331;51.992;20.910;2023-05-20T12:18:59;4.37;;;2.80;;
69220;SDS011;56331;51.992;20.910;2023-05-20T12:21:27;4.08;;;3.00;;
69220;SDS011;56331;51.992;20.910;2023-05-20T12:23:54;3.00;;;2.47;;
69220;SDS011;56331;51.992;20.910;2023-05-20T12:26:24;3.10;;;2.77;;
69220;SDS011;56331;51.992;20.910;2023-05-20T12:28:52;2.92;;;2.40;;
69220;SDS011;56331;51.992;20.910;2023-05-20T12:31:19;4.53;;;2.67;;
69220;SDS011;56331;51.992;20.910;2023-05-20T12:33:46;3.12;;;2.60;;
69220;SDS011;56331;51.992;20.910;2023-05-20T12:36:12;2.87;;;2.55;;
69220;SDS011;56331;51.992;20.910;2023-05-20T12:38:40;2.75;;;2.55;;
69220;SDS011;56331;51.992;20.910;2023-05-20T12:41:06;3.30;;;2.80;;
69220;SDS011;56331;51.992;20.910;2023-05-20T12:43:34;3.02;;;2.42;;
69220;SDS011;56331;51.992;20.910;2023-05-20T12:46:01;4.33;;;2.50;;
69220;SDS011;56331;51.992;20.910;2023-05-20T12:48:29;4.80;;;2.50;;
69220;SDS011;56331;51.992;20.910;2023-05-20T12:50:55;2.65;;;2.42;;
69220;SDS011;56331;51.992;20.910;2023-05-20T12:53:26;2.80;;;2.40;;
69220;SDS011;56331;51.992;20.910;2023-05-20T12:55:50;2.95;;;2.50;;
69220;SDS011;56331;51.992;20.910;2023-05-20T12:58:16;3.37;;;2.50;;
69220;SDS011;56331;51.992;20.910;2023-05-20T13:00:43;3.50;;;2.60;;
69220;SDS011;56331;51.992;20.910;2023-05-20T13:03:10;3.37;;;2.52;;
69220;SDS011;56331;51.992;20.910;2023-05-20T13:05:36;3.30;;;2.90;;
69220;SDS011;56331;51.992;20.910;2023-05-20T13:08:03;3.92;;;2.70;;
69220;SDS011;56331;51.992;20.910;2023-05-20T13:10:30;3.25;;;2.75;;
69220;SDS011;56331;51.992;20.910;2023-05-20T13:12:56;3.42;;;3.08;;
69220;SDS011;56331;51.992;20.910;2023-05-20T13:15:22;5.47;;;3.10;;
69220;SDS011;56331;51.992;20.910;2023-05-20T13:17:49;3.17;;;2.62;;
69220;SDS011;56331;51.992;20.910;2023-05-20T13:20:15;3.15;;;2.80;;
69220;SDS011;56331;51.992;20.910;2023-05-20T13:22:43;3.83;;;2.90;;
69220;SDS011;56331;51.992;20.910;2023-05-20T13:25:10;3.77;;;2.92;;
69220;SDS011;56331;51.992;20.910;2023-05-20T13:27:36;3.10;;;2.80;;
69220;SDS011;56331;51.992;20.910;2023-05-20T13:30:03;6.00;;;3.25;;
69220;SDS011;56331;51.992;20.910;2023-05-20T13:32:31;4.90;;;3.83;;
69220;SDS011;56331;51.992;20.910;2023-05-20T13:34:57;3.90;;;3.50;;
69220;SDS011;56331;51.992;20.910;2023-05-20T13:37:24;3.87;;;3.47;;
69220;SDS011;56331;51.992;20.910;2023-05-20T13:39:51;4.33;;;3.35;;
69220;SDS011;56331;51.992;20.910;2023-05-20T13:42:18;3.62;;;3.17;;
69220;SDS011;56331;51.992;20.910;2023-05-20T13:44:44;3.80;;;3.08;;
69220;SDS011;56331;51.992;20.910;2023-05-20T13:47:16;4.17;;;3.33;;
69220;SDS011;56331;51.992;20.910;2023-05-20T13:49:42;3.55;;;3.17;;
69220;SDS011;56331;51.992;20.910;2023-05-20T13:52:09;3.80;;;3.25;;
69220;SDS011;56331;51.992;20.910;2023-05-20T13:54:37;5.20;;;3.47;;
69220;SDS011;56331;51.992;20.910;2023-05-20T13:57:04;4.53;;;3.37;;
69220;SDS011;56331;51.992;20.910;2023-05-20T13:59:32;4.05;;;3.22;;
69220;SDS011;56331;51.992;20.910;2023-05-20T14:01:59;4.75;;;3.37;;
69220;SDS011;56331;51.992;20.910;2023-05-20T14:04:26;3.55;;;3.25;;
69220;SDS011;56331;51.992;20.910;2023-05-20T14:06:53;3.95;;;3.35;;
69220;SDS011;56331;51.992;20.910;2023-05-20T14:09:19;3.92;;;3.37;;
69220;SDS011;56331;51.992;20.910;2023-05-20T14:11:46;3.95;;;3.20;;
69220;SDS011;56331;51.992;20.910;2023-05-20T14:14:12;4.30;;;3.40;;
69220;SDS011;56331;51.992;20.910;2023-05-20T14:16:39;3.52;;;3.17;;
69220;SDS011;56331;51.992;20.910;2023-05-20T14:19:05;3.60;;;3.20;;
69220;SDS011;56331;51.992;20.910;2023-05-20T14:21:31;3.95;;;3.05;;
69220;SDS011;56331;51.992;20.910;2023-05-20T14:23:59;4.47;;;3.52;;
69220;SDS011;56331;51.992;20.910;2023-05-20T14:26:25;3.87;;;3.05;;
69220;SDS011;56331;51.992;20.910;2023-05-20T14:28:52;3.30;;;2.92;;
69220;SDS011;56331;51.992;20.910;2023-05-20T14:31:18;3.50;;;3.20;;
69220;SDS011;56331;51.992;20.910;2023-05-20T14:33:45;3.27;;;2.98;;
69220;SDS011;56331;51.992;20.910;2023-05-20T14:36:11;4.97;;;3.95;;
69220;SDS011;56331;51.992;20.910;2023-05-20T14:38:38;3.35;;;3.05;;
69220;SDS011;56331;51.992;20.910;2023-05-20T14:41:04;3.52;;;3.22;;
69220;SDS011;56331;51.992;20.910;2023-05-20T14:43:31;3.00;;;2.77;;
69220;SDS011;56331;51.992;20.910;2023-05-20T14:45:57;3.90;;;3.20;;
69220;SDS011;56331;51.992;20.910;2023-05-20T14:48:24;5.42;;;3.22;;
69220;SDS011;56331;51.992;20.910;2023-05-20T14:50:50;3.83;;;3.42;;